Latest Weather Observations for Neptune Island

IDS60801

Issued at 7:02 am CDT Friday 19 December 2014 (issued every 30 minutes, with the page automatically refreshed every 10 minutes)

About weather observations | Map of weather stations | Latest weather observations for SA | Other Formats
Station Details ID: 018115 Name: NEPTUNE ISLAND Lat: -35.34 Lon: 136.12 Height: 32.0 m
Data from the previous 72 hours. | See also: Recent months at Neptune Island
Date/Time
CDT
Temp
°C
App
Temp
°C
Dew
Point
Rel
Hum
%
Delta-T
°C
Wind Press
QNH
hPa
Press
MSL
hPa
Rain
since 9 am
mm
Dir
 
Spd
km/h
Gust
km/h
Spd
kts
Gust
kts
19/07:00am 15.5 11.8 9.4 67 3.1 SSW 19 22 10 12 1019.0 1018.9 0.0
19/06:30am 15.5 11.8 9.4 67 3.1 SSW 19 22 10 12 1018.6 1018.5 0.0
19/06:00am 15.2 11.7 8.7 65 3.3 SSW 17 22 9 12 1018.3 1018.2 0.0
19/05:30am 15.4 11.4 8.4 63 3.5 S 19 22 10 12 1018.3 1018.2 0.0
19/05:00am 15.4 11.2 8.2 62 3.6 S 20 26 11 14 1018.0 1017.9 0.0
19/04:30am 15.4 11.2 8.4 63 3.5 S 20 26 11 14 1018.2 1018.1 0.0
19/04:00am 15.4 11.1 7.9 61 3.8 SSW 20 26 11 14 1018.2 1018.1 0.0
19/03:30am 15.5 11.7 9.0 65 3.3 SSW 19 24 10 13 1018.3 1018.2 0.0
19/03:00am 15.5 11.4 8.7 64 3.5 SSW 20 24 11 13 1018.4 1018.3 0.0
19/02:30am 15.5 11.4 8.5 63 3.5 S 20 24 11 13 1018.2 1018.1 0.0
19/02:00am 15.6 11.4 8.4 62 3.6 SSW 20 26 11 14 1018.4 1018.3 0.0
19/01:30am 15.6 10.6 7.9 60 3.9 S 24 30 13 16 1018.4 1018.3 0.0
19/01:00am 15.8 10.4 8.1 60 3.9 S 26 32 14 17 1018.6 1018.5 0.0
19/12:30am 15.8 10.9 8.3 61 3.8 SSW 24 30 13 16 1018.5 1018.4 0.0
19/12:00am 15.9 11.2 9.1 64 3.5 SSW 24 30 13 16 1018.4 1018.3 0.0
 
Date/Time
CDT
Temp
°C
App
Temp
°C
Dew
Point
Rel
Hum
%
Delta-T
°C
Wind Press
QNH
hPa
Press
MSL
hPa
Rain
since 9 am
mm
Dir
 
Spd
km/h
Gust
km/h
Spd
kts
Gust
kts
18/11:30pm 16.1 11.7 8.8 62 3.7 SSW 22 26 12 14 1018.5 1018.4 0.0
18/11:00pm 16.0 11.5 8.7 62 3.7 SSW 22 30 12 16 1018.4 1018.3 0.0
18/10:30pm 16.0 10.4 8.7 62 3.7 SSW 28 35 15 19 1018.1 1018.0 0.0
18/10:00pm 16.1 10.6 9.1 63 3.6 SSW 28 33 15 18 1017.9 1017.8 0.0
18/09:30pm 16.0 10.3 8.2 60 3.9 SW 28 35 15 19 1017.7 1017.6 0.0
18/09:00pm 16.1 10.0 8.1 59 4.0 SSW 30 35 16 19 1017.4 1017.3 0.0
18/08:30pm 16.3 9.8 8.3 59 4.1 SSW 32 37 17 20 1017.1 1017.0 0.0
18/08:00pm 16.8 10.3 9.0 60 4.0 SSW 33 39 18 21 1016.9 1016.8 0.0
18/07:30pm 17.0 10.6 8.7 58 4.3 SSW 32 41 17 22 1016.6 1016.5 0.0
18/07:00pm 17.3 12.0 9.7 61 4.0 SSW 28 35 15 19 1016.1 1016.0 0.0
18/06:30pm 18.0 12.2 9.6 58 4.4 SSW 30 35 16 19 1015.7 1015.6 0.0
18/06:00pm 18.0 11.9 9.6 58 4.4 SSW 32 37 17 20 1015.3 1015.3 0.0
18/05:30pm 18.9 12.6 9.7 55 4.9 SSW 33 41 18 22 1015.0 1015.0 0.0
18/05:00pm 18.9 12.1 9.1 53 5.1 SSW 35 41 19 22 1014.8 1014.8 0.0
18/04:30pm 19.1 12.9 10.1 56 4.8 SW 33 39 18 21 1014.6 1014.6 0.0
18/04:00pm 19.2 12.9 11.0 59 4.5 SSW 35 43 19 23 1014.4 1014.4 0.0
18/03:30pm 19.1 13.2 11.2 60 4.3 SW 33 41 18 22 1014.2 1014.2 0.0
18/03:00pm 18.9 12.5 10.7 59 4.4 SW 35 41 19 22 1013.8 1013.8 0.0
18/02:30pm 19.5 13.2 11.0 58 4.6 SW 35 41 19 22 1013.6 1013.6 0.0
18/02:00pm 19.3 13.4 11.1 59 4.5 SW 33 39 18 21 1013.6 1013.6 0.0
18/01:30pm 19.2 12.6 11.5 61 4.2 SW 37 44 20 24 1013.5 1013.5 0.0
18/01:00pm 19.0 12.3 11.1 60 4.3 SW 37 43 20 23 1013.3 1013.3 0.0
18/12:30pm 19.1 12.5 11.4 61 4.2 SW 37 44 20 24 1013.2 1013.2 0.0
18/12:00pm 18.9 13.3 12.2 65 3.7 SW 33 41 18 22 1012.8 1012.8 0.0
18/11:30am 18.7 12.7 12.0 65 3.7 SW 35 41 19 22 1012.5 1012.5 0.0
18/11:00am 18.6 12.2 12.1 66 3.6 SW 37 44 20 24 1012.4 1012.4 0.0
18/10:30am 17.8 10.2 12.3 70 3.0 SW 44 56 24 30 1011.8 1011.8 0.0
18/10:00am 17.9 10.6 12.8 72 2.9 SW 43 48 23 26 1011.6 1011.6 0.0
18/09:30am 17.4 10.5 12.7 74 2.6 WSW 41 48 22 26 1011.2 1011.2 0.0
18/09:00am 18.1 10.9 13.2 73 2.8 WSW 43 54 23 29 1010.7 1010.7 0.0
18/08:30am 17.8 11.4 13.1 74 2.6 W 39 48 21 26 1010.2 1010.2 0.0
18/08:00am 16.9 9.4 12.6 76 2.4 WSW 44 50 24 27 1009.8 1009.8 0.0
18/07:30am 17.4 11.3 12.9 75 2.5 WSW 37 44 20 24 1009.4 1009.4 0.0
18/07:00am 17.2 10.3 12.7 75 2.5 W 41 48 22 26 1009.0 1009.0 0.0
18/06:30am 17.2 9.9 12.7 75 2.5 W 43 52 23 28 1008.7 1008.7 0.0
18/06:00am 16.9 9.2 12.2 74 2.6 W 44 52 24 28 1008.4 1008.4 0.0
18/05:30am 17.1 9.1 12.4 74 2.6 W 46 56 25 30 1008.2 1008.2 0.0
18/05:00am 16.8 9.2 11.9 73 2.7 W 43 50 23 27 1007.8 1007.8 0.0
18/04:30am 16.9 10.2 12.2 74 2.6 W 39 44 21 24 1007.7 1007.7 0.0
18/04:00am 16.9 10.2 12.2 74 2.6 W 39 46 21 25 1007.4 1007.4 0.0
18/03:30am 16.6 10.1 11.7 73 2.7 W 37 43 20 23 1007.5 1007.5 0.0
18/03:00am 16.7 10.2 11.6 72 2.8 W 37 43 20 23 1007.4 1007.4 0.0
18/02:30am 16.7 9.9 11.8 73 2.7 W 39 44 21 24 1007.7 1007.7 0.0
18/02:00am 16.6 10.4 11.3 71 2.9 W 35 43 19 23 1007.9 1007.9 0.0
18/01:30am 16.9 10.8 11.8 72 2.8 W 35 41 19 22 1008.0 1008.0 0.0
18/01:00am 16.7 11.1 11.4 71 2.9 W 32 35 17 19 1008.0 1008.0 0.0
18/12:30am 16.6 11.6 11.1 70 3.0 W 28 35 15 19 1008.2 1008.2 0.0
18/12:00am 16.6 11.6 10.9 69 3.1 W 28 33 15 18 1008.4 1008.4 0.0
 
Date/Time
CDT
Temp
°C
App
Temp
°C
Dew
Point
Rel
Hum
%
Delta-T
°C
Wind Press
QNH
hPa
Press
MSL
hPa
Rain
since 9 am
mm
Dir
 
Spd
km/h
Gust
km/h
Spd
kts
Gust
kts
17/11:30pm 16.6 11.6 10.9 69 3.1 W 28 32 15 17 1008.4 1008.4 0.0
17/11:00pm 16.7 12.1 11.0 69 3.1 W 26 32 14 17 1008.6 1008.6 0.0
17/10:30pm 16.5 13.1 10.6 68 3.1 W 19 22 10 12 1008.5 1008.5 0.0
17/10:00pm 16.6 12.6 10.5 67 3.2 W 22 28 12 15 1008.5 1008.5 0.0
17/09:30pm 16.6 13.0 10.5 67 3.3 W 20 24 11 13 1008.5 1008.5 0.0
17/09:00pm 17.0 12.7 10.6 66 3.4 WSW 24 30 13 16 1008.6 1008.6 0.0
17/08:30pm 17.0 11.8 10.4 65 3.5 WSW 28 32 15 17 1008.4 1008.4 0.0
17/08:00pm 17.7 13.4 10.8 64 3.7 WSW 24 30 13 16 1008.2 1008.2 0.0
17/07:30pm 18.2 14.8 10.6 61 4.1 WSW 19 24 10 13 1008.0 1008.0 0.0
17/07:00pm 18.1 14.2 10.7 62 4.0 WSW 22 28 12 15 1007.9 1007.9 0.0
17/06:30pm 17.8 12.7 10.7 63 3.8 WSW 28 35 15 19 1007.8 1007.8 0.0
17/06:00pm 18.7 14.1 9.8 56 4.7 WSW 24 28 13 15 1007.8 1007.8 0.0
17/05:30pm 19.0 13.9 9.2 53 5.2 WSW 26 30 14 16 1007.9 1007.9 0.0
17/05:00pm 18.9 14.6 9.4 54 5.0 SW 22 26 12 14 1008.0 1008.0 0.0
17/04:30pm 18.9 14.1 8.8 52 5.3 WSW 24 30 13 16 1008.4 1008.4 0.0
17/04:00pm 18.9 14.1 7.4 47 5.8 WSW 22 28 12 15 1008.8 1008.8 0.0
17/03:30pm 19.0 14.7 7.8 48 5.7 WSW 20 26 11 14 1008.9 1008.9 0.0
17/03:00pm 19.1 14.4 7.8 48 5.8 WSW 22 30 12 16 1009.0 1009.0 0.0
17/02:30pm 19.8 15.4 9.1 50 5.7 WSW 22 28 12 15 1009.1 1009.1 0.0
17/02:00pm 19.5 15.7 9.7 53 5.2 W 20 26 11 14 1009.1 1009.1 0.0
17/01:30pm 19.3 15.2 8.0 48 5.8 W 19 24 10 13 1009.5 1009.5 0.0
17/01:00pm 19.2 15.3 8.5 50 5.6 WNW 19 26 10 14 1009.9 1009.9 0.0
17/12:30pm 19.1 15.1 9.0 52 5.3 WNW 20 24 11 13 1010.3 1010.3 0.0
17/12:00pm 18.3 14.8 8.8 54 4.9 NW 17 20 9 11 1010.5 1010.5 0.0
17/11:30am 18.1 14.5 8.4 53 5.0 NW 17 22 9 12 1010.7 1010.7 0.0
17/11:00am 18.6 15.4 8.6 52 5.2 WNW 15 20 8 11 1010.7 1010.7 0.0
17/10:30am 17.7 14.2 7.4 51 5.2 NW 15 17 8 9 1010.9 1010.9 0.0
17/10:00am 17.7 14.6 7.4 51 5.2 NW 13 20 7 11 1010.8 1010.8 0.0
17/09:30am 17.3 14.2 7.4 52 5.0 WNW 13 19 7 10 1011.0 1011.0 0.0
17/09:00am 16.4 13.9 6.5 52 4.9 NW 9 15 5 8 1011.0 1011.0 0.0
17/08:30am 16.5 13.7 6.9 53 4.8 W 11 15 6 8 1011.0 1011.0 0.0
17/08:00am 16.2 13.1 7.4 56 4.4 WSW 13 17 7 9 1010.9 1010.9 0.0
17/07:30am 15.8 13.1 7.3 57 4.2 WSW 11 15 6 8 1010.8 1010.8 0.0
17/07:00am 15.3 11.7 6.8 57 4.2 WSW 15 19 8 10 1010.5 1010.5 0.0
17/06:30am 14.9 11.2 6.2 56 4.2 SW 15 20 8 11 1010.2 1010.2 0.0
17/06:00am 14.8 11.1 6.4 57 4.1 SW 15 19 8 10 1009.9 1009.9 0.0
17/05:30am 14.8 10.7 6.4 57 4.1 WSW 17 20 9 11 1009.8 1009.8 0.0
17/05:00am 14.9 10.5 6.7 58 4.0 WSW 19 22 10 12 1009.6 1009.6 0.0
17/04:30am 14.8 10.4 7.4 61 3.7 SW 20 24 11 13 1009.3 1009.3 0.0
17/04:00am 14.7 10.8 7.0 60 3.8 SSW 17 22 9 12 1009.0 1009.0 0.0
17/03:30am 14.9 11.0 7.2 60 3.8 SW 17 20 9 11 1009.1 1009.1 0.0
17/03:00am 15.0 11.2 7.5 61 3.7 SW 17 20 9 11 1009.2 1009.2 0.0
17/02:30am 14.9 10.6 7.2 60 3.8 SW 19 22 10 12 1009.1 1009.1 0.0
17/02:00am 15.0 10.5 7.1 59 3.9 SW 20 28 11 15 1009.2 1009.2 0.0
17/01:30am 15.0 10.3 6.0 55 4.3 SW 20 28 11 15 1009.5 1009.5 0.0
17/01:00am 15.1 9.8 6.9 58 4.0 SW 24 30 13 16 1009.7 1009.7 0.0
17/12:30am 15.0 9.6 6.3 56 4.2 SSW 24 30 13 16 1009.7 1009.7 0.0
17/12:00am 15.1 9.9 7.4 60 3.8 SSW 24 30 13 16 1009.7 1009.7 0.0
 
Date/Time
CDT
Temp
°C
App
Temp
°C
Dew
Point
Rel
Hum
%
Delta-T
°C
Wind Press
QNH
hPa
Press
MSL
hPa
Rain
since 9 am
mm
Dir
 
Spd
km/h
Gust
km/h
Spd
kts
Gust
kts
16/11:30pm 15.1 9.9 7.2 59 3.9 SSW 24 30 13 16 1009.9 1009.9 0.0
16/11:00pm 15.4 10.4 7.9 61 3.8 SSW 24 32 13 17 1010.3 1010.3 0.0
16/10:30pm 15.4 9.1 7.4 59 4.0 SSW 30 37 16 20 1010.4 1010.4 0.0
16/10:00pm 15.5 9.2 7.5 59 4.0 SW 30 39 16 21 1010.1 1010.1 0.0
16/09:30pm 15.7 8.9 7.5 58 4.1 SSW 33 41 18 22 1009.8 1009.8 0.0
16/09:00pm 15.9 9.5 8.6 62 3.7 SSW 32 39 17 21 1009.6 1009.6 0.0
16/08:30pm 15.8 8.6 7.8 59 4.0 SW 35 41 19 22 1009.3 1009.3 0.0
16/08:00pm 16.1 7.8 7.6 57 4.3 SW 41 48 22 26 1008.9 1008.9 0.0
16/07:30pm 16.7 8.1 8.1 57 4.4 SW 43 50 23 27 1008.6 1008.6 0.0
16/07:00pm 16.9 8.5 8.8 59 4.2 SW 43 50 23 27 1008.2 1008.2 0.0
16/06:30pm 17.1 8.5 9.0 59 4.2 SW 44 52 24 28 1007.9 1007.9 0.0
16/06:00pm 16.5 7.9 10.4 67 3.2 SW 46 54 25 29 1007.5 1007.5 0.0
16/05:30pm 18.0 9.8 9.6 58 4.4 SW 43 48 23 26 1007.3 1007.3 0.0
16/05:00pm 17.9 9.4 9.3 57 4.5 SW 44 52 24 28 1007.1 1007.1 0.0
16/04:30pm 18.6 10.9 10.2 58 4.5 SW 41 50 22 27 1007.0 1007.0 0.0
16/04:00pm 18.4 9.6 9.7 57 4.6 WSW 46 54 25 29 1006.7 1006.7 0.0
16/03:30pm 18.3 8.5 8.6 53 5.0 WSW 50 57 27 31 1006.5 1006.5 0.0
16/03:00pm 18.4 9.2 9.5 56 4.7 SW 48 57 26 31 1006.0 1005.9 0.0
16/02:30pm 18.6 9.0 9.4 55 4.9 WSW 50 61 27 33 1005.7 1005.6 0.0
16/02:00pm 18.0 8.0 9.4 57 4.5 SW 52 61 28 33 1005.4 1005.3 0.0
16/01:30pm 18.5 8.2 11.1 62 4.0 WSW 56 63 30 34 1004.9 1004.8 0.0
16/01:00pm 18.5 8.1 10.8 61 4.2 SW 56 65 30 35 1004.5 1004.4 0.0
16/12:30pm 18.7 9.1 10.8 60 4.3 WSW 52 59 28 32 1004.2 1004.1 0.0
16/12:00pm 18.3 9.3 11.6 65 3.7 SW 50 59 27 32 1003.8 1003.7 0.0
16/11:30am 18.7 9.1 12.0 65 3.7 WSW 54 67 29 36 1003.2 1003.1 0.0
16/11:00am 18.6 9.3 11.9 65 3.7 WSW 52 61 28 33 1002.8 1002.7 0.0
16/10:30am 18.5 9.2 12.9 70 3.2 WSW 54 61 29 33 1002.5 1002.4 0.0
16/10:00am 18.3 9.0 13.0 71 3.0 WSW 54 61 29 33 1002.0 1001.9 0.0
16/09:30am 17.9 9.3 14.0 78 2.2 WSW 52 59 28 32 1001.7 1001.6 0.0
16/09:00am 17.5 9.5 13.4 77 2.3 W 48 63 26 34 1001.4 1001.3 0.0
16/08:30am 18.3 11.6 14.6 79 2.2 W 43 48 23 26 1001.1 1001.0 0.0
16/08:00am 17.9 11.5 14.4 80 2.0 WNW 41 46 22 25 1001.2 1001.1 0.0
16/07:30am 17.7 11.6 14.2 80 2.0 W 39 48 21 26 1000.7 1000.6 0.0

Other Formats:

Comma delimited format used in spreadsheet applications
http://www.bom.gov.au/fwo/IDS60801/IDS60801.94804.axf

JavaScript Object Notation format (JSON) in row-major order
http://www.bom.gov.au/fwo/IDS60801/IDS60801.94804.json